createdAt,value
2023-05-05T00:00:39.899Z,67.50
2023-05-05T00:01:44.139Z,67.60
2023-05-05T00:02:47.406Z,67.90
2023-05-05T00:03:56.698Z,68.00
2023-05-05T00:05:04.808Z,68.00
2023-05-05T00:06:09.250Z,68.20
2023-05-05T00:07:12.368Z,68.50
2023-05-05T00:08:16.512Z,68.50
2023-05-05T00:09:20.761Z,68.60
2023-05-05T00:10:25.650Z,68.90
2023-05-05T00:11:28.472Z,68.90
2023-05-05T00:12:33.043Z,69.00
2023-05-05T00:13:37.420Z,69.20
2023-05-05T00:14:42.559Z,69.30
2023-05-05T00:15:47.982Z,69.30
2023-05-05T00:16:54.450Z,69.30
2023-05-05T00:17:57.435Z,69.40
2023-05-05T00:19:01.549Z,69.50
2023-05-05T00:20:05.882Z,69.50
2023-05-05T00:21:10.338Z,69.60
2023-05-05T00:22:12.881Z,69.60
2023-05-05T00:23:17.648Z,69.60
2023-05-05T00:24:21.820Z,69.70
2023-05-05T00:25:25.890Z,69.80
2023-05-05T00:26:28.909Z,69.60
2023-05-05T00:27:32.964Z,69.90
2023-05-05T00:28:35.806Z,70.20
2023-05-05T00:29:40.244Z,70.50
2023-05-05T00:30:43.077Z,70.60
2023-05-05T00:31:47.429Z,70.80
2023-05-05T00:32:50.894Z,71.20
2023-05-05T00:33:54.425Z,71.30
2023-05-05T00:34:56.885Z,71.40
2023-05-05T00:36:00.279Z,71.30
2023-05-05T00:37:03.419Z,71.80
2023-05-05T00:38:06.934Z,72.00
2023-05-05T00:39:10.108Z,72.50
2023-05-05T00:40:16.491Z,72.70
2023-05-05T00:41:20.072Z,72.90
2023-05-05T00:42:24.644Z,72.90
2023-05-05T00:43:27.675Z,73.40
2023-05-05T00:44:39.593Z,73.60
2023-05-05T00:45:47.533Z,73.90
2023-05-05T00:46:50.113Z,74.00
2023-05-05T00:47:56.058Z,74.10
2023-05-05T00:49:00.642Z,74.20
2023-05-05T00:50:05.027Z,74.20
2023-05-05T00:51:09.360Z,74.40
2023-05-05T00:52:13.198Z,74.50
2023-05-05T00:53:15.623Z,74.60
2023-05-05T00:54:19.270Z,74.90
2023-05-05T00:55:23.335Z,75.10
2023-05-05T00:56:27.446Z,75.20
2023-05-05T00:57:30.439Z,75.50
2023-05-05T00:58:34.660Z,75.50
2023-05-05T00:59:38.220Z,75.40
2023-05-05T01:00:41.851Z,75.30
2023-05-05T01:01:44.664Z,75.40
2023-05-05T01:02:48.355Z,75.30
2023-05-05T01:03:51.008Z,75.30
2023-05-05T01:04:55.566Z,75.30
2023-05-05T01:06:19.176Z,75.40
2023-05-05T01:07:32.967Z,75.30
2023-05-05T01:08:55.440Z,75.30
2023-05-05T01:10:18.311Z,75.30
2023-05-05T01:11:33.142Z,75.40
2023-05-05T01:12:49.693Z,75.40
2023-05-05T01:14:06.353Z,75.50
2023-05-05T01:15:19.267Z,75.40
2023-05-05T01:16:27.730Z,75.30
2023-05-05T01:17:41.981Z,75.30
2023-05-05T01:19:07.178Z,75.10
2023-05-05T01:20:25.005Z,75.10
2023-05-05T01:21:43.818Z,75.30
2023-05-05T01:22:49.704Z,75.40
2023-05-05T01:24:46.817Z,75.20
2023-05-05T01:26:22.637Z,75.10
2023-05-05T01:27:59.362Z,74.90
2023-05-05T01:29:26.191Z,74.80
2023-05-05T01:31:08.081Z,74.80
2023-05-05T01:32:15.023Z,75.00
2023-05-05T01:33:26.761Z,75.00
2023-05-05T01:34:39.203Z,75.50
2023-05-05T01:35:48.596Z,75.50
2023-05-05T01:36:56.925Z,75.40
2023-05-05T01:38:07.149Z,75.40
2023-05-05T01:39:16.701Z,75.30
2023-05-05T01:40:31.278Z,75.40
2023-05-05T01:41:50.308Z,75.20
2023-05-05T01:43:08.741Z,75.30
2023-05-05T01:44:14.216Z,75.40
2023-05-05T01:45:35.924Z,75.50
2023-05-05T01:46:44.772Z,75.60
2023-05-05T01:48:00.937Z,75.40
2023-05-05T01:49:09.364Z,75.40
2023-05-05T01:50:19.795Z,75.50
2023-05-05T01:51:33.977Z,75.50
2023-05-05T01:52:53.149Z,75.60
2023-05-05T01:54:09.132Z,75.60
2023-05-05T01:55:21.339Z,75.70
2023-05-05T01:56:33.887Z,75.90
2023-05-05T01:57:46.174Z,76.00
2023-05-05T01:58:52.815Z,76.20
2023-05-05T02:00:10.107Z,76.20
2023-05-05T02:01:35.134Z,76.20
2023-05-05T02:02:55.374Z,76.40
2023-05-05T02:04:13.015Z,76.60
2023-05-05T02:05:23.274Z,76.80
2023-05-05T02:06:30.463Z,76.80
2023-05-05T02:07:38.883Z,76.80
2023-05-05T02:08:44.692Z,76.80
2023-05-05T02:10:04.371Z,76.80
2023-05-05T02:11:11.430Z,76.80
2023-05-05T02:12:25.046Z,77.00
2023-05-05T02:13:33.122Z,76.80
2023-05-05T02:14:42.995Z,77.00
2023-05-05T02:15:58.100Z,77.00
2023-05-05T02:17:08.011Z,77.10
2023-05-05T02:18:14.830Z,77.20
2023-05-05T02:19:29.225Z,77.20
2023-05-05T02:20:44.552Z,77.30
2023-05-05T02:21:55.508Z,77.30
2023-05-05T02:23:05.281Z,77.50
2023-05-05T02:24:10.683Z,77.50
2023-05-05T02:25:15.439Z,77.50
2023-05-05T02:26:27.684Z,77.60
2023-05-05T02:27:35.895Z,77.80
2023-05-05T02:28:52.725Z,77.80
2023-05-05T02:30:09.094Z,77.70
2023-05-05T02:31:29.738Z,77.90
2023-05-05T02:32:40.734Z,77.90
2023-05-05T02:33:51.651Z,78.00
2023-05-05T02:35:09.785Z,78.10
2023-05-05T02:36:24.282Z,78.10
2023-05-05T02:37:35.828Z,78.20
2023-05-05T02:38:45.863Z,78.30
2023-05-05T02:40:03.626Z,78.30
2023-05-05T02:41:20.258Z,78.40
2023-05-05T02:42:26.987Z,78.40
2023-05-05T02:43:38.231Z,78.40
2023-05-05T02:44:45.939Z,78.50
2023-05-05T02:45:52.984Z,78.50
2023-05-05T02:46:58.764Z,78.60
2023-05-05T02:48:05.273Z,78.60
2023-05-05T02:49:13.671Z,78.60
2023-05-05T02:50:21.388Z,78.70
2023-05-05T02:51:34.266Z,78.70
2023-05-05T02:52:51.239Z,78.80
2023-05-05T02:53:58.455Z,78.90
2023-05-05T02:55:15.287Z,78.90
2023-05-05T02:56:33.853Z,78.90
2023-05-05T02:57:50.390Z,78.90
2023-05-05T02:59:05.323Z,78.80
2023-05-05T03:00:21.059Z,78.70
2023-05-05T03:01:47.835Z,78.80
2023-05-05T03:03:05.128Z,78.80
2023-05-05T03:04:12.613Z,78.90
2023-05-05T03:05:27.086Z,78.90
2023-05-05T03:06:33.027Z,78.90
2023-05-05T03:07:43.206Z,79.20
2023-05-05T03:08:56.489Z,79.20
2023-05-05T03:10:08.736Z,79.40
2023-05-05T03:11:24.056Z,79.50
2023-05-05T03:12:37.406Z,79.60
2023-05-05T03:14:11.918Z,79.70
2023-05-05T03:15:15.528Z,79.70
2023-05-05T03:16:21.682Z,79.70
2023-05-05T03:17:25.730Z,79.90
2023-05-05T03:18:32.201Z,79.90
2023-05-05T03:19:38.140Z,79.80
2023-05-05T03:20:44.425Z,80.20
2023-05-05T03:21:49.822Z,80.10
2023-05-05T03:22:54.813Z,80.00
2023-05-05T03:23:58.355Z,80.00
2023-05-05T03:25:01.714Z,80.00
2023-05-05T03:26:04.278Z,80.10
2023-05-05T03:27:16.334Z,80.10
2023-05-05T03:28:18.855Z,80.20
2023-05-05T03:29:22.322Z,80.40
2023-05-05T03:30:24.917Z,80.40
2023-05-05T03:31:29.460Z,80.30
2023-05-05T03:32:35.813Z,80.30
2023-05-05T03:33:38.382Z,80.40
2023-05-05T03:34:43.008Z,80.40
2023-05-05T03:35:47.003Z,80.30
2023-05-05T03:36:51.038Z,80.30
2023-05-05T03:37:53.482Z,80.30
2023-05-05T03:38:56.912Z,80.30
2023-05-05T03:40:00.939Z,80.30
2023-05-05T03:41:04.900Z,80.40
2023-05-05T03:42:08.101Z,80.40
2023-05-05T03:43:12.411Z,80.60
2023-05-05T03:44:14.970Z,80.70
2023-05-05T03:45:19.172Z,80.70
2023-05-05T03:46:21.713Z,80.70
2023-05-05T03:47:25.246Z,80.70
2023-05-05T03:48:29.375Z,80.70
2023-05-05T03:49:32.906Z,80.70
2023-05-05T03:50:36.641Z,80.70
2023-05-05T03:51:41.798Z,80.90
2023-05-05T03:52:44.355Z,80.90
2023-05-05T03:53:48.132Z,80.70
2023-05-05T03:54:50.739Z,80.90
2023-05-05T03:55:55.075Z,81.00
2023-05-05T03:56:58.329Z,81.10
2023-05-05T03:58:02.563Z,81.30
2023-05-05T03:59:05.074Z,81.50
2023-05-05T04:00:11.938Z,81.40
2023-05-05T04:01:17.776Z,81.40
2023-05-05T04:02:21.270Z,81.50
2023-05-05T04:03:25.274Z,81.70
2023-05-05T04:04:28.338Z,81.70
2023-05-05T04:05:31.956Z,82.20
2023-05-05T04:06:34.483Z,82.10
2023-05-05T04:07:39.675Z,82.10
2023-05-05T04:08:42.252Z,82.10
2023-05-05T04:09:45.809Z,82.10
2023-05-05T04:10:48.690Z,82.10
2023-05-05T04:11:52.484Z,82.20
2023-05-05T04:12:55.093Z,82.10
2023-05-05T04:13:58.690Z,81.90
2023-05-05T04:15:03.608Z,82.10
2023-05-05T04:16:08.816Z,82.20
2023-05-05T04:17:12.692Z,82.20
2023-05-05T04:18:16.387Z,82.20
2023-05-05T04:19:19.027Z,82.20
2023-05-05T04:20:22.940Z,82.20
2023-05-05T04:21:25.500Z,82.40
2023-05-05T04:22:29.145Z,82.10
2023-05-05T04:23:33.200Z,82.10
2023-05-05T04:24:37.265Z,82.10
2023-05-05T04:25:40.018Z,82.10
2023-05-05T04:26:43.516Z,82.20
2023-05-05T04:27:47.115Z,82.20
2023-05-05T04:28:51.266Z,82.10
2023-05-05T04:29:54.542Z,82.30
2023-05-05T04:30:59.366Z,82.50
2023-05-05T04:32:01.994Z,82.60
2023-05-05T04:33:06.504Z,82.50
2023-05-05T04:34:09.678Z,82.60
2023-05-05T04:35:13.994Z,82.60
2023-05-05T04:36:16.850Z,82.80
2023-05-05T04:37:20.490Z,82.80
2023-05-05T04:38:23.153Z,82.80
2023-05-05T04:39:28.415Z,82.70
2023-05-05T04:40:31.423Z,82.70
2023-05-05T04:41:35.634Z,82.60
2023-05-05T04:42:38.315Z,82.50
2023-05-05T04:43:42.224Z,82.50
2023-05-05T04:44:44.883Z,82.60
2023-05-05T04:45:54.658Z,82.70
2023-05-05T04:47:00.992Z,82.80
2023-05-05T04:48:05.275Z,82.90
2023-05-05T04:49:09.407Z,82.90
2023-05-05T04:50:13.713Z,83.10
2023-05-05T04:51:16.155Z,83.30
2023-05-05T04:52:19.730Z,83.20
2023-05-05T04:53:25.268Z,82.90
2023-05-05T04:54:30.165Z,83.00
2023-05-05T04:55:33.602Z,83.00
2023-05-05T04:56:37.258Z,82.90
2023-05-05T04:57:39.663Z,82.70
2023-05-05T04:58:43.329Z,82.60
2023-05-05T04:59:48.802Z,82.40
2023-05-05T05:00:52.323Z,82.10
2023-05-05T05:01:54.991Z,81.80
2023-05-05T05:02:58.543Z,81.70
2023-05-05T05:04:01.239Z,81.40
2023-05-05T05:05:05.006Z,81.10
2023-05-05T05:06:07.698Z,80.90
2023-05-05T05:07:14.766Z,80.60
2023-05-05T05:08:19.441Z,80.30
2023-05-05T05:09:22.068Z,80.20
2023-05-05T05:10:26.992Z,79.80
2023-05-05T05:11:29.475Z,79.50
2023-05-05T05:12:33.034Z,79.20
2023-05-05T05:13:35.498Z,79.00
2023-05-05T05:14:39.212Z,78.70
2023-05-05T05:15:42.367Z,78.30
2023-05-05T05:16:45.919Z,78.10
2023-05-05T05:17:48.883Z,77.90
2023-05-05T05:18:52.564Z,77.50
2023-05-05T05:19:56.200Z,76.90
2023-05-05T05:20:59.683Z,76.70
2023-05-05T05:22:02.190Z,76.30
2023-05-05T05:23:07.596Z,76.00
2023-05-05T05:24:13.830Z,75.80
2023-05-05T05:25:17.446Z,75.50
2023-05-05T05:26:22.253Z,75.10
2023-05-05T05:27:26.398Z,74.90
2023-05-05T05:28:30.082Z,74.50
2023-05-05T05:29:35.742Z,74.20
2023-05-05T05:30:38.353Z,74.00
2023-05-05T05:31:43.398Z,73.70
2023-05-05T05:32:45.975Z,73.20
2023-05-05T05:33:49.510Z,73.10
2023-05-05T05:34:51.970Z,72.90
2023-05-05T05:35:55.593Z,72.40
2023-05-05T05:36:58.160Z,72.20
2023-05-05T05:38:02.391Z,71.80
2023-05-05T05:39:05.041Z,71.60
2023-05-05T05:40:10.495Z,71.20
2023-05-05T05:41:14.385Z,70.90
2023-05-05T05:42:19.695Z,70.70
2023-05-05T05:43:22.552Z,70.40
2023-05-05T05:44:27.030Z,70.10
2023-05-05T05:45:30.007Z,69.90
2023-05-05T05:46:33.492Z,69.70
2023-05-05T05:47:36.279Z,69.50
2023-05-05T05:48:40.122Z,69.20
2023-05-05T05:49:42.726Z,68.80
2023-05-05T05:50:46.474Z,68.60
2023-05-05T05:51:49.469Z,68.30
2023-05-05T05:52:53.702Z,68.10
2023-05-05T05:53:58.862Z,67.90
2023-05-05T05:55:01.682Z,67.60
2023-05-05T05:56:06.370Z,67.20
2023-05-05T05:57:08.864Z,67.20
2023-05-05T05:58:13.733Z,66.90
2023-05-05T05:59:16.198Z,66.70
2023-05-05T06:00:20.218Z,66.40
2023-05-05T06:01:28.727Z,66.10
2023-05-05T06:02:32.618Z,65.50
2023-05-05T06:03:35.352Z,65.30
2023-05-05T06:04:39.106Z,65.10
2023-05-05T06:05:41.732Z,64.80
2023-05-05T06:06:45.574Z,64.20
2023-05-05T06:07:48.350Z,64.00
2023-05-05T06:08:52.496Z,63.70
2023-05-05T06:09:55.046Z,63.30
2023-05-05T06:11:00.542Z,62.80
2023-05-05T06:12:04.247Z,62.60
2023-05-05T06:13:07.784Z,62.50
2023-05-05T06:14:17.057Z,62.60
2023-05-05T06:15:20.611Z,62.60
2023-05-05T06:16:24.265Z,62.60
2023-05-05T06:17:27.013Z,62.60
2023-05-05T06:18:30.835Z,62.20
2023-05-05T06:19:34.378Z,62.30
2023-05-05T06:20:38.040Z,62.30
2023-05-05T06:21:40.842Z,62.10
2023-05-05T06:22:44.422Z,62.00
2023-05-05T06:23:48.614Z,61.90
2023-05-05T06:24:51.687Z,62.00
2023-05-05T06:25:55.860Z,61.70
2023-05-05T06:26:59.490Z,61.70
2023-05-05T06:28:02.088Z,61.60
2023-05-05T06:29:06.004Z,61.30
2023-05-05T06:30:11.548Z,61.30
2023-05-05T06:31:15.065Z,61.10
2023-05-05T06:32:17.563Z,61.00
2023-05-05T06:33:20.899Z,60.80
2023-05-05T06:34:23.416Z,60.20
2023-05-05T06:35:27.076Z,60.40
2023-05-05T06:36:29.579Z,60.20
2023-05-05T06:37:33.016Z,59.50
2023-05-05T06:38:35.436Z,59.50
2023-05-05T06:39:38.856Z,59.50
2023-05-05T06:40:42.096Z,59.50
2023-05-05T06:41:45.682Z,59.30
2023-05-05T06:42:48.125Z,58.90
2023-05-05T06:43:57.856Z,58.70
2023-05-05T06:45:01.552Z,58.80
2023-05-05T06:46:05.785Z,58.20
2023-05-05T06:47:09.491Z,58.50
2023-05-05T06:48:12.334Z,57.90
2023-05-05T06:49:15.780Z,58.30
2023-05-05T06:50:18.386Z,58.10
2023-05-05T06:51:24.790Z,58.20
2023-05-05T06:52:27.676Z,58.50
2023-05-05T06:53:31.334Z,58.40
2023-05-05T06:55:37.594Z,58.50
2023-05-05T06:56:40.092Z,58.50
2023-05-05T06:57:43.845Z,57.90
2023-05-05T06:58:47.908Z,58.00
2023-05-05T06:59:50.581Z,58.10
2023-05-05T07:00:54.542Z,58.10
2023-05-05T07:01:58.617Z,57.60
2023-05-05T07:03:02.223Z,57.20
2023-05-05T07:04:07.195Z,57.00
2023-05-05T07:05:11.817Z,56.80
2023-05-05T07:06:14.799Z,56.60
2023-05-05T07:07:18.671Z,56.40
2023-05-05T07:08:22.627Z,55.90
2023-05-05T07:09:25.381Z,56.00
2023-05-05T07:11:32.300Z,55.00
2023-05-05T07:12:36.228Z,54.60
2023-05-05T07:13:39.733Z,54.00
2023-05-05T07:14:42.319Z,53.80
2023-05-05T07:15:46.712Z,53.80
2023-05-05T07:16:49.404Z,53.80
2023-05-05T07:17:54.572Z,53.70
2023-05-05T07:18:57.054Z,53.80
2023-05-05T07:20:05.995Z,54.30
2023-05-05T07:21:09.787Z,54.70
2023-05-05T07:22:12.451Z,54.70
2023-05-05T07:23:16.192Z,54.90
2023-05-05T07:24:18.771Z,55.20
2023-05-05T07:25:23.039Z,55.10
2023-05-05T07:26:25.767Z,55.30
2023-05-05T07:27:29.607Z,55.10
2023-05-05T07:28:33.200Z,54.80
2023-05-05T07:29:36.967Z,54.20
2023-05-05T07:30:40.494Z,54.20
2023-05-05T07:31:43.033Z,53.90
2023-05-05T07:32:47.070Z,54.20
2023-05-05T07:33:51.982Z,54.40
2023-05-05T07:34:54.863Z,54.30
2023-05-05T07:35:58.479Z,54.30
2023-05-05T07:37:02.259Z,54.30
2023-05-05T07:38:05.217Z,53.90
2023-05-05T07:39:08.949Z,53.30
2023-05-05T07:40:14.787Z,52.90
2023-05-05T07:41:19.409Z,52.20
2023-05-05T07:42:25.570Z,51.90
2023-05-05T07:43:31.973Z,51.10
2023-05-05T07:44:36.227Z,50.70
2023-05-05T07:45:39.998Z,50.50
2023-05-05T07:46:42.743Z,50.20
2023-05-05T07:47:46.477Z,50.60
2023-05-05T07:48:51.665Z,50.90
2023-05-05T07:49:56.042Z,51.10
2023-05-05T07:50:58.983Z,50.80
2023-05-05T07:52:02.773Z,50.80
2023-05-05T07:53:14.445Z,50.40
2023-05-05T07:54:23.216Z,50.70
2023-05-05T07:55:26.947Z,50.50
2023-05-05T07:56:31.566Z,50.20
2023-05-05T07:57:38.126Z,49.50
2023-05-05T07:58:42.338Z,49.50
2023-05-05T07:59:45.213Z,49.40
2023-05-05T08:00:52.027Z,49.10
2023-05-05T08:01:55.200Z,49.20
2023-05-05T08:02:59.019Z,49.10
2023-05-05T08:04:04.216Z,48.80
2023-05-05T08:05:09.682Z,48.30
2023-05-05T08:06:21.792Z,47.80
2023-05-05T08:07:25.651Z,47.70
2023-05-05T08:08:30.090Z,47.70
2023-05-05T08:09:33.957Z,47.60
2023-05-05T08:10:41.315Z,47.80
2023-05-05T08:11:43.807Z,47.70
2023-05-05T08:12:47.745Z,47.50
2023-05-05T08:13:50.285Z,47.60
2023-05-05T08:14:53.975Z,46.90
2023-05-05T08:15:59.734Z,46.90
2023-05-05T08:17:03.352Z,47.10
2023-05-05T08:18:07.690Z,46.70
2023-05-05T08:19:28.661Z,46.20
2023-05-05T08:20:33.668Z,46.20
2023-05-05T08:21:40.908Z,46.00
2023-05-05T08:22:44.852Z,45.80
2023-05-05T08:23:48.500Z,46.40
2023-05-05T08:24:52.293Z,46.40
2023-05-05T08:25:56.043Z,46.00
2023-05-05T08:27:00.166Z,46.00
2023-05-05T08:28:03.820Z,45.90
2023-05-05T08:29:08.241Z,45.90
2023-05-05T08:30:16.564Z,45.50
2023-05-05T08:31:20.483Z,46.20
2023-05-05T08:32:22.904Z,46.70
2023-05-05T08:33:26.499Z,47.00
2023-05-05T08:34:33.652Z,47.20
2023-05-05T08:35:36.485Z,47.50
2023-05-05T08:36:40.188Z,47.70
2023-05-05T08:37:43.974Z,47.90
2023-05-05T08:38:47.832Z,48.20
2023-05-05T08:39:54.788Z,48.30
2023-05-05T08:40:58.477Z,48.70
2023-05-05T08:42:02.565Z,48.90
2023-05-05T08:43:06.047Z,49.30
2023-05-05T08:44:10.300Z,49.20
2023-05-05T08:45:16.369Z,49.30
2023-05-05T08:46:20.253Z,49.50
2023-05-05T08:47:26.536Z,49.30
2023-05-05T08:48:36.750Z,49.80
2023-05-05T08:49:45.536Z,50.10
2023-05-05T08:50:57.387Z,50.10
2023-05-05T08:52:02.992Z,50.30
2023-05-05T08:53:11.817Z,50.20
2023-05-05T08:54:19.381Z,50.30
2023-05-05T08:55:26.933Z,50.00
2023-05-05T08:56:46.109Z,50.10
2023-05-05T08:57:57.266Z,50.40
2023-05-05T08:59:02.292Z,50.70
2023-05-05T09:00:07.867Z,50.90
2023-05-05T09:01:13.039Z,50.90
2023-05-05T09:02:16.411Z,50.60
2023-05-05T09:03:20.185Z,50.80
2023-05-05T09:04:25.474Z,51.10
2023-05-05T09:05:32.268Z,50.90
2023-05-05T09:06:37.708Z,51.10
2023-05-05T09:07:43.617Z,51.10
2023-05-05T09:08:56.985Z,51.40
2023-05-05T09:10:03.473Z,51.30
2023-05-05T09:11:11.572Z,51.20
2023-05-05T09:12:15.798Z,51.30
2023-05-05T09:13:28.744Z,51.60
2023-05-05T09:14:33.284Z,52.30
2023-05-05T09:15:39.054Z,52.80
2023-05-05T09:16:45.289Z,53.20
2023-05-05T09:17:48.498Z,53.70
2023-05-05T09:19:02.003Z,53.90
2023-05-05T09:20:07.494Z,54.10
2023-05-05T09:21:28.146Z,54.60
2023-05-05T09:22:38.570Z,55.20
2023-05-05T09:24:09.289Z,55.50
2023-05-05T09:25:18.070Z,55.70
2023-05-05T09:26:21.008Z,56.10
2023-05-05T09:27:27.795Z,56.40
2023-05-05T09:28:31.690Z,56.50
2023-05-05T09:29:35.310Z,56.80
2023-05-05T09:30:39.100Z,57.30
2023-05-05T09:31:45.463Z,57.50
2023-05-05T09:32:50.192Z,58.20
2023-05-05T09:33:54.056Z,59.70
2023-05-05T09:35:02.595Z,60.90
2023-05-05T09:36:06.569Z,62.00
2023-05-05T09:37:09.438Z,62.80
2023-05-05T09:38:13.282Z,63.60
2023-05-05T09:39:21.685Z,64.40
2023-05-05T09:40:27.630Z,65.10
2023-05-05T09:41:38.631Z,65.70
2023-05-05T09:42:42.999Z,66.20
2023-05-05T09:43:52.482Z,66.70
2023-05-05T09:44:57.909Z,67.40
2023-05-05T09:46:09.973Z,67.80
2023-05-05T09:47:26.092Z,67.80
2023-05-05T09:48:34.821Z,68.30
2023-05-05T09:49:43.321Z,68.60
2023-05-05T09:50:47.229Z,69.10
2023-05-05T09:51:50.242Z,69.40
2023-05-05T09:52:57.302Z,69.50
2023-05-05T09:54:00.962Z,69.80
2023-05-05T09:55:05.456Z,70.30
2023-05-05T09:56:10.464Z,70.70
2023-05-05T09:57:40.964Z,70.90
2023-05-05T09:58:43.606Z,71.20
2023-05-05T09:59:57.747Z,71.50
2023-05-05T10:01:02.995Z,71.80
2023-05-05T10:02:14.963Z,71.90
2023-05-05T10:03:18.036Z,72.10
2023-05-05T10:04:29.304Z,72.30
2023-05-05T10:05:35.342Z,72.40
2023-05-05T10:06:45.001Z,72.70
2023-05-05T10:07:49.617Z,72.90
2023-05-05T10:09:02.453Z,72.90
2023-05-05T10:10:09.264Z,72.80
2023-05-05T10:11:15.723Z,73.00
2023-05-05T10:12:18.841Z,73.20
2023-05-05T10:13:26.224Z,73.40
2023-05-05T10:14:35.305Z,73.30
2023-05-05T10:15:38.472Z,73.70
2023-05-05T10:16:47.724Z,74.10
2023-05-05T10:18:05.895Z,74.30
2023-05-05T10:19:14.295Z,74.30
2023-05-05T10:20:20.125Z,74.80
2023-05-05T10:21:25.592Z,75.20
2023-05-05T10:22:31.355Z,75.40
2023-05-05T10:23:39.803Z,75.50
2023-05-05T10:24:52.486Z,75.40
2023-05-05T10:26:04.485Z,75.50
2023-05-05T10:27:16.980Z,75.60
2023-05-05T10:28:41.577Z,75.70
2023-05-05T10:29:54.889Z,75.70
2023-05-05T10:31:16.150Z,75.80
2023-05-05T10:32:54.389Z,75.80
2023-05-05T10:34:04.652Z,76.00
2023-05-05T10:35:10.050Z,76.50
2023-05-05T10:36:15.914Z,76.80
2023-05-05T10:37:19.892Z,77.10
2023-05-05T10:38:26.911Z,77.20
2023-05-05T10:39:32.560Z,77.30
2023-05-05T10:40:36.623Z,77.60
2023-05-05T10:41:39.767Z,77.60
2023-05-05T10:42:45.532Z,77.60
2023-05-05T10:43:50.403Z,77.80
2023-05-05T10:44:53.588Z,77.80
2023-05-05T10:45:57.993Z,77.90
2023-05-05T10:47:02.357Z,78.00
2023-05-05T10:48:13.916Z,78.00
2023-05-05T10:49:29.978Z,78.10
2023-05-05T10:50:39.344Z,78.10
2023-05-05T10:52:01.396Z,77.90
2023-05-05T10:53:35.359Z,78.00
2023-05-05T10:54:48.664Z,78.40
2023-05-05T10:56:02.795Z,78.90
2023-05-05T10:57:08.230Z,78.70
2023-05-05T10:58:35.048Z,79.00
2023-05-05T10:59:45.250Z,79.20
2023-05-05T11:00:51.871Z,79.30
2023-05-05T11:01:55.815Z,79.50
2023-05-05T11:03:24.350Z,79.60
2023-05-05T11:04:27.737Z,79.60
2023-05-05T11:05:33.986Z,79.80
2023-05-05T11:07:20.576Z,79.90
2023-05-05T11:08:27.962Z,79.90
2023-05-05T11:09:32.094Z,79.90
2023-05-05T11:10:47.543Z,79.80
2023-05-05T11:12:05.199Z,79.90
2023-05-05T11:13:23.449Z,80.00
2023-05-05T11:14:26.349Z,80.10
2023-05-05T11:15:38.772Z,80.20
2023-05-05T11:16:50.613Z,80.20
2023-05-05T11:17:54.672Z,80.50
2023-05-05T11:18:58.322Z,80.50
2023-05-05T11:20:00.910Z,80.60
2023-05-05T11:21:21.526Z,80.70
2023-05-05T11:22:24.798Z,80.70
2023-05-05T11:23:29.146Z,80.70
2023-05-05T11:24:33.459Z,80.80
2023-05-05T11:25:48.398Z,80.90
2023-05-05T11:26:53.469Z,80.70
2023-05-05T11:28:05.903Z,80.70
2023-05-05T11:29:10.747Z,80.80
2023-05-05T11:30:15.189Z,80.90
2023-05-05T11:31:22.005Z,81.00
2023-05-05T11:32:50.204Z,81.00
2023-05-05T11:33:53.869Z,80.90
2023-05-05T11:34:57.919Z,80.80
2023-05-05T11:36:04.097Z,81.10
2023-05-05T11:37:09.895Z,81.20
2023-05-05T11:38:15.594Z,81.20
2023-05-05T11:39:30.963Z,81.10
2023-05-05T11:40:38.367Z,81.40
2023-05-05T11:42:11.026Z,81.40
2023-05-05T11:43:19.740Z,81.30
2023-05-05T11:44:32.680Z,81.40
2023-05-05T11:45:37.023Z,82.20
2023-05-05T11:46:42.088Z,85.80
2023-05-05T11:47:46.797Z,92.40
2023-05-05T11:48:52.989Z,96.30
2023-05-05T11:49:57.348Z,96.30
2023-05-05T11:51:05.402Z,96.30
2023-05-05T11:52:10.603Z,96.30
2023-05-05T11:53:15.852Z,96.30
2023-05-05T11:54:27.992Z,96.30
2023-05-05T11:56:27.771Z,96.30
2023-05-05T11:57:33.807Z,96.30
2023-05-05T11:58:42.971Z,96.30
2023-05-05T11:59:55.661Z,96.30
2023-05-05T12:00:59.164Z,96.30
2023-05-05T12:02:03.294Z,96.30
2023-05-05T12:03:09.026Z,96.30
2023-05-05T12:04:14.000Z,96.30
2023-05-05T12:05:24.514Z,96.30
2023-05-05T12:06:27.611Z,96.30
2023-05-05T12:07:33.224Z,96.30
2023-05-05T12:08:39.649Z,96.30
2023-05-05T12:09:45.669Z,96.30
2023-05-05T12:10:49.918Z,96.30
2023-05-05T12:11:53.870Z,96.30
2023-05-05T12:12:57.741Z,96.30
2023-05-05T12:14:11.004Z,96.30
2023-05-05T12:15:17.141Z,96.30
2023-05-05T12:16:29.948Z,96.30
2023-05-05T12:17:44.901Z,96.30
2023-05-05T12:18:47.824Z,96.30
2023-05-05T12:19:53.538Z,96.30
2023-05-05T12:20:56.609Z,96.30
2023-05-05T12:22:00.400Z,96.30
2023-05-05T12:23:05.026Z,96.30
2023-05-05T12:24:12.628Z,96.30
2023-05-05T12:25:16.503Z,96.30
2023-05-05T12:26:26.045Z,96.30
2023-05-05T12:27:30.383Z,96.30
2023-05-05T12:28:45.611Z,96.30
2023-05-05T12:29:49.580Z,96.30
2023-05-05T12:31:00.391Z,96.30
2023-05-05T12:32:05.123Z,96.30
2023-05-05T12:33:09.723Z,96.30
2023-05-05T12:34:12.999Z,96.30
2023-05-05T12:35:17.305Z,96.30
2023-05-05T12:36:20.005Z,96.30
2023-05-05T12:37:24.622Z,96.30
2023-05-05T12:38:27.278Z,96.30
2023-05-05T12:39:37.152Z,96.30
2023-05-05T12:40:46.291Z,96.30
2023-05-05T12:41:48.587Z,96.30
2023-05-05T12:42:53.764Z,96.30
2023-05-05T12:43:58.657Z,96.30
2023-05-05T12:45:01.395Z,96.30
2023-05-05T12:46:12.213Z,96.30
2023-05-05T12:47:29.071Z,96.30
2023-05-05T12:48:33.036Z,96.30
2023-05-05T12:49:51.407Z,96.30
2023-05-05T12:50:54.161Z,96.30
2023-05-05T12:51:58.485Z,96.30
2023-05-05T12:53:01.211Z,96.30
2023-05-05T12:54:07.497Z,96.30
2023-05-05T12:55:11.425Z,96.30
2023-05-05T12:56:38.622Z,96.30
2023-05-05T12:58:01.468Z,96.30
2023-05-05T12:59:05.627Z,96.30
2023-05-05T13:00:17.756Z,96.30
2023-05-05T13:01:22.148Z,96.30
2023-05-05T13:02:35.880Z,96.30
2023-05-05T13:03:38.943Z,96.30
2023-05-05T13:04:51.964Z,96.30
2023-05-05T13:05:54.457Z,96.30
2023-05-05T13:07:20.742Z,96.30
2023-05-05T13:08:25.356Z,96.30
2023-05-05T13:09:32.416Z,96.30
2023-05-05T13:10:42.556Z,96.30
2023-05-05T13:11:52.934Z,96.30
2023-05-05T13:13:03.392Z,96.30
2023-05-05T13:14:07.675Z,96.30
2023-05-05T13:15:13.298Z,96.30
2023-05-05T13:16:15.907Z,96.30
2023-05-05T13:17:20.945Z,96.30
2023-05-05T13:18:23.687Z,96.30
2023-05-05T13:19:27.879Z,96.30
2023-05-05T13:20:34.236Z,96.30
2023-05-05T13:21:38.825Z,96.30
2023-05-05T13:22:46.298Z,96.30
2023-05-05T13:23:50.470Z,96.30
2023-05-05T13:24:54.875Z,96.30
2023-05-05T13:25:57.465Z,96.30
2023-05-05T13:27:05.247Z,96.30
2023-05-05T13:28:08.855Z,96.30
2023-05-05T13:29:11.414Z,96.30
2023-05-05T13:30:19.108Z,96.30
2023-05-05T13:31:24.035Z,96.30
2023-05-05T13:32:33.975Z,96.30
2023-05-05T13:33:37.816Z,96.30
2023-05-05T13:34:42.636Z,96.30
2023-05-05T13:35:45.136Z,96.30
2023-05-05T13:36:48.739Z,96.30
2023-05-05T13:37:52.242Z,96.30
2023-05-05T13:38:54.842Z,96.30
2023-05-05T13:39:59.445Z,96.30
2023-05-05T13:41:02.300Z,96.30
2023-05-05T13:42:06.184Z,96.30
2023-05-05T13:43:08.671Z,96.30
2023-05-05T13:44:12.265Z,96.30
2023-05-05T13:45:14.935Z,96.30
2023-05-05T13:46:20.069Z,96.30
2023-05-05T13:47:23.943Z,96.30
2023-05-05T13:48:27.950Z,96.30
2023-05-05T13:49:31.390Z,96.30
2023-05-05T13:50:33.836Z,96.30
2023-05-05T13:51:38.356Z,96.30
2023-05-05T13:52:41.791Z,96.30
2023-05-05T13:53:45.224Z,96.30
2023-05-05T13:54:48.278Z,96.30
2023-05-05T13:55:51.865Z,96.30
2023-05-05T13:56:56.306Z,96.30
2023-05-05T13:57:58.763Z,96.30
2023-05-05T13:59:02.491Z,96.30
2023-05-05T14:00:06.870Z,96.30
2023-05-05T14:01:12.600Z,96.30
2023-05-05T14:02:15.336Z,96.30
2023-05-05T14:03:18.940Z,96.30
2023-05-05T14:04:22.948Z,96.30
2023-05-05T14:05:27.041Z,96.30
2023-05-05T14:06:30.585Z,96.30
2023-05-05T14:07:33.016Z,96.30
2023-05-05T14:08:36.611Z,96.30
2023-05-05T14:09:40.301Z,96.30
2023-05-05T14:10:44.262Z,96.30
2023-05-05T14:11:48.915Z,96.30
2023-05-05T14:12:53.211Z,96.30
2023-05-05T14:13:56.965Z,96.30
2023-05-05T14:14:59.561Z,96.30
2023-05-05T14:16:03.133Z,96.30
2023-05-05T14:17:06.758Z,96.30
2023-05-05T14:18:09.779Z,96.30
2023-05-05T14:19:13.611Z,96.30
2023-05-05T14:20:17.554Z,96.30
2023-05-05T14:21:21.163Z,96.30
2023-05-05T14:22:23.785Z,96.30
2023-05-05T14:23:27.621Z,96.30
2023-05-05T14:24:31.253Z,96.30